sensor_id;sensor_type;location;lat;lon;timestamp;temperature;humidity
18191;DHT22;47004;51.366;12.348;2023-05-13T00:00:06;14.30;99.90
18191;DHT22;47004;51.366;12.348;2023-05-13T00:02:08;14.20;99.90
18191;DHT22;47004;51.366;12.348;2023-05-13T00:04:10;14.20;99.90
18191;DHT22;47004;51.366;12.348;2023-05-13T00:06:13;14.20;99.90
18191;DHT22;47004;51.366;12.348;2023-05-13T00:08:15;14.20;99.90
18191;DHT22;47004;51.366;12.348;2023-05-13T00:10:17;14.10;99.90
18191;DHT22;47004;51.366;12.348;2023-05-13T00:12:19;14.10;99.90
18191;DHT22;47004;51.366;12.348;2023-05-13T00:14:22;14.00;99.90
18191;DHT22;47004;51.366;12.348;2023-05-13T00:16:24;14.00;99.90
18191;DHT22;47004;51.366;12.348;2023-05-13T00:18:29;14.00;99.90
18191;DHT22;47004;51.366;12.348;2023-05-13T00:20:31;13.90;99.90
18191;DHT22;47004;51.366;12.348;2023-05-13T00:22:34;13.90;99.90
18191;DHT22;47004;51.366;12.348;2023-05-13T00:24:36;13.80;99.90
18191;DHT22;47004;51.366;12.348;2023-05-13T00:26:38;13.80;99.90
18191;DHT22;47004;51.366;12.348;2023-05-13T00:28:40;13.70;99.90
18191;DHT22;47004;51.366;12.348;2023-05-13T00:30:42;13.70;99.90
18191;DHT22;47004;51.366;12.348;2023-05-13T00:32:45;13.60;99.90
18191;DHT22;47004;51.366;12.348;2023-05-13T00:34:47;13.60;99.90
18191;DHT22;47004;51.366;12.348;2023-05-13T00:36:48;13.60;99.90
18191;DHT22;47004;51.366;12.348;2023-05-13T00:38:52;13.50;99.90
18191;DHT22;47004;51.366;12.348;2023-05-13T00:40:54;13.50;99.90
18191;DHT22;47004;51.366;12.348;2023-05-13T00:42:56;13.40;99.90
18191;DHT22;47004;51.366;12.348;2023-05-13T00:44:57;13.40;99.90
18191;DHT22;47004;51.366;12.348;2023-05-13T00:46:59;13.40;99.90
18191;DHT22;47004;51.366;12.348;2023-05-13T00:49:02;13.30;99.90
18191;DHT22;47004;51.366;12.348;2023-05-13T00:51:05;13.30;99.90
18191;DHT22;47004;51.366;12.348;2023-05-13T00:53:07;13.30;99.90
18191;DHT22;47004;51.366;12.348;2023-05-13T00:55:10;13.20;99.90
18191;DHT22;47004;51.366;12.348;2023-05-13T00:57:12;13.20;99.90
18191;DHT22;47004;51.366;12.348;2023-05-13T00:59:14;13.20;99.90
18191;DHT22;47004;51.366;12.348;2023-05-13T01:01:22;13.10;99.90
18191;DHT22;47004;51.366;12.348;2023-05-13T01:03:33;13.10;99.90
18191;DHT22;47004;51.366;12.348;2023-05-13T01:05:40;13.10;99.90
18191;DHT22;47004;51.366;12.348;2023-05-13T01:07:48;13.00;99.90
18191;DHT22;47004;51.366;12.348;2023-05-13T01:10:07;13.00;99.90
18191;DHT22;47004;51.366;12.348;2023-05-13T01:12:17;13.00;99.90
18191;DHT22;47004;51.366;12.348;2023-05-13T01:14:24;13.00;99.90
18191;DHT22;47004;51.366;12.348;2023-05-13T01:16:30;12.90;99.90
18191;DHT22;47004;51.366;12.348;2023-05-13T01:18:35;12.90;99.90
18191;DHT22;47004;51.366;12.348;2023-05-13T01:20:41;12.90;99.90
18191;DHT22;47004;51.366;12.348;2023-05-13T01:22:44;12.90;99.90
18191;DHT22;47004;51.366;12.348;2023-05-13T01:24:46;12.80;99.90
18191;DHT22;47004;51.366;12.348;2023-05-13T01:26:50;12.80;99.90
18191;DHT22;47004;51.366;12.348;2023-05-13T01:28:52;12.80;99.90
18191;DHT22;47004;51.366;12.348;2023-05-13T01:30:54;12.80;99.90
18191;DHT22;47004;51.366;12.348;2023-05-13T01:32:57;12.80;99.90
18191;DHT22;47004;51.366;12.348;2023-05-13T01:35:00;12.70;99.90
18191;DHT22;47004;51.366;12.348;2023-05-13T01:37:02;12.80;99.90
18191;DHT22;47004;51.366;12.348;2023-05-13T01:39:06;12.70;99.90
18191;DHT22;47004;51.366;12.348;2023-05-13T01:41:08;12.80;99.90
18191;DHT22;47004;51.366;12.348;2023-05-13T01:43:10;12.80;99.90
18191;DHT22;47004;51.366;12.348;2023-05-13T01:45:13;12.80;99.90
18191;DHT22;47004;51.366;12.348;2023-05-13T01:47:15;12.80;99.90
18191;DHT22;47004;51.366;12.348;2023-05-13T01:49:22;12.80;99.90
18191;DHT22;47004;51.366;12.348;2023-05-13T01:51:25;12.80;99.90
18191;DHT22;47004;51.366;12.348;2023-05-13T01:53:29;12.80;99.90
18191;DHT22;47004;51.366;12.348;2023-05-13T01:55:33;12.80;99.90
18191;DHT22;47004;51.366;12.348;2023-05-13T01:57:35;12.80;99.90
18191;DHT22;47004;51.366;12.348;2023-05-13T01:59:37;12.80;99.90
18191;DHT22;47004;51.366;12.348;2023-05-13T02:01:39;12.80;99.90
18191;DHT22;47004;51.366;12.348;2023-05-13T02:03:44;12.80;99.90
18191;DHT22;47004;51.366;12.348;2023-05-13T02:05:46;12.80;99.90
18191;DHT22;47004;51.366;12.348;2023-05-13T02:07:48;12.80;99.90
18191;DHT22;47004;51.366;12.348;2023-05-13T02:09:50;12.70;99.90
18191;DHT22;47004;51.366;12.348;2023-05-13T02:11:56;12.70;99.90
18191;DHT22;47004;51.366;12.348;2023-05-13T02:13:58;12.70;99.90
18191;DHT22;47004;51.366;12.348;2023-05-13T02:16:00;12.70;99.90
18191;DHT22;47004;51.366;12.348;2023-05-13T02:18:02;12.70;99.90
18191;DHT22;47004;51.366;12.348;2023-05-13T02:20:05;12.60;99.90
18191;DHT22;47004;51.366;12.348;2023-05-13T02:22:07;12.60;99.90
18191;DHT22;47004;51.366;12.348;2023-05-13T02:24:09;12.60;99.90
18191;DHT22;47004;51.366;12.348;2023-05-13T02:26:11;12.60;99.90
18191;DHT22;47004;51.366;12.348;2023-05-13T02:28:14;12.50;99.90
18191;DHT22;47004;51.366;12.348;2023-05-13T02:30:16;12.50;99.90
18191;DHT22;47004;51.366;12.348;2023-05-13T02:32:18;12.50;99.90
18191;DHT22;47004;51.366;12.348;2023-05-13T02:34:20;12.50;99.90
18191;DHT22;47004;51.366;12.348;2023-05-13T02:36:22;12.50;99.90
18191;DHT22;47004;51.366;12.348;2023-05-13T02:38:24;12.40;99.90
18191;DHT22;47004;51.366;12.348;2023-05-13T02:40:26;12.40;99.90
18191;DHT22;47004;51.366;12.348;2023-05-13T02:42:28;12.40;99.90
18191;DHT22;47004;51.366;12.348;2023-05-13T02:44:31;12.30;99.90
18191;DHT22;47004;51.366;12.348;2023-05-13T02:46:33;12.30;99.90
18191;DHT22;47004;51.366;12.348;2023-05-13T02:48:35;12.30;99.90
18191;DHT22;47004;51.366;12.348;2023-05-13T02:50:37;12.20;99.90
18191;DHT22;47004;51.366;12.348;2023-05-13T02:52:40;12.20;99.90
18191;DHT22;47004;51.366;12.348;2023-05-13T02:54:42;12.20;99.90
18191;DHT22;47004;51.366;12.348;2023-05-13T02:56:44;12.20;99.90
18191;DHT22;47004;51.366;12.348;2023-05-13T02:58:45;12.10;99.90
18191;DHT22;47004;51.366;12.348;2023-05-13T03:00:49;12.10;99.90
18191;DHT22;47004;51.366;12.348;2023-05-13T03:02:51;12.10;99.90
18191;DHT22;47004;51.366;12.348;2023-05-13T03:04:53;12.00;99.90
18191;DHT22;47004;51.366;12.348;2023-05-13T03:06:56;12.00;99.90
18191;DHT22;47004;51.366;12.348;2023-05-13T03:08:58;12.00;99.90
18191;DHT22;47004;51.366;12.348;2023-05-13T03:11:00;12.00;99.90
18191;DHT22;47004;51.366;12.348;2023-05-13T03:13:02;12.00;99.90
18191;DHT22;47004;51.366;12.348;2023-05-13T03:15:04;11.90;99.90
18191;DHT22;47004;51.366;12.348;2023-05-13T03:17:08;11.90;99.90
18191;DHT22;47004;51.366;12.348;2023-05-13T03:19:10;12.00;99.90
18191;DHT22;47004;51.366;12.348;2023-05-13T03:21:12;11.90;99.90
18191;DHT22;47004;51.366;12.348;2023-05-13T03:23:14;11.90;99.90
18191;DHT22;47004;51.366;12.348;2023-05-13T03:25:16;11.90;99.90
18191;DHT22;47004;51.366;12.348;2023-05-13T03:27:18;11.90;99.90
18191;DHT22;47004;51.366;12.348;2023-05-13T03:29:20;11.80;99.90
18191;DHT22;47004;51.366;12.348;2023-05-13T03:31:22;11.80;99.90
18191;DHT22;47004;51.366;12.348;2023-05-13T03:33:25;11.80;99.90
18191;DHT22;47004;51.366;12.348;2023-05-13T03:35:29;11.70;99.90
18191;DHT22;47004;51.366;12.348;2023-05-13T03:37:31;11.70;99.90
18191;DHT22;47004;51.366;12.348;2023-05-13T03:39:33;11.70;99.90
18191;DHT22;47004;51.366;12.348;2023-05-13T03:41:36;11.70;99.90
18191;DHT22;47004;51.366;12.348;2023-05-13T03:43:37;11.70;99.90
18191;DHT22;47004;51.366;12.348;2023-05-13T03:45:40;11.60;99.90
18191;DHT22;47004;51.366;12.348;2023-05-13T03:47:42;11.60;99.90
18191;DHT22;47004;51.366;12.348;2023-05-13T03:49:45;11.60;99.90
18191;DHT22;47004;51.366;12.348;2023-05-13T03:51:48;11.60;99.90
18191;DHT22;47004;51.366;12.348;2023-05-13T03:53:50;11.60;99.90
18191;DHT22;47004;51.366;12.348;2023-05-13T03:55:52;11.50;99.90
18191;DHT22;47004;51.366;12.348;2023-05-13T03:57:54;11.50;99.90
18191;DHT22;47004;51.366;12.348;2023-05-13T03:59:56;11.50;99.90
18191;DHT22;47004;51.366;12.348;2023-05-13T04:01:58;11.50;99.90
18191;DHT22;47004;51.366;12.348;2023-05-13T04:04:00;11.50;99.90
18191;DHT22;47004;51.366;12.348;2023-05-13T04:06:03;11.50;99.90
18191;DHT22;47004;51.366;12.348;2023-05-13T04:08:05;11.40;99.90
18191;DHT22;47004;51.366;12.348;2023-05-13T04:10:08;11.40;99.90
18191;DHT22;47004;51.366;12.348;2023-05-13T04:12:10;11.40;99.90
18191;DHT22;47004;51.366;12.348;2023-05-13T04:14:12;11.40;99.90
18191;DHT22;47004;51.366;12.348;2023-05-13T04:16:14;11.40;99.90
18191;DHT22;47004;51.366;12.348;2023-05-13T04:18:16;11.40;99.90
18191;DHT22;47004;51.366;12.348;2023-05-13T04:20:19;11.40;99.90
18191;DHT22;47004;51.366;12.348;2023-05-13T04:22:23;11.30;99.90
18191;DHT22;47004;51.366;12.348;2023-05-13T04:24:25;11.40;99.90
18191;DHT22;47004;51.366;12.348;2023-05-13T04:26:27;11.40;99.90
18191;DHT22;47004;51.366;12.348;2023-05-13T04:28:29;11.40;99.90
18191;DHT22;47004;51.366;12.348;2023-05-13T04:30:32;11.40;99.90
18191;DHT22;47004;51.366;12.348;2023-05-13T04:32:34;11.40;99.90
18191;DHT22;47004;51.366;12.348;2023-05-13T04:34:36;11.40;99.90
18191;DHT22;47004;51.366;12.348;2023-05-13T04:36:38;11.40;99.90
18191;DHT22;47004;51.366;12.348;2023-05-13T04:38:41;11.50;99.90
18191;DHT22;47004;51.366;12.348;2023-05-13T04:40:43;11.50;99.90
18191;DHT22;47004;51.366;12.348;2023-05-13T04:42:46;11.40;99.90
18191;DHT22;47004;51.366;12.348;2023-05-13T04:44:54;11.40;99.90
18191;DHT22;47004;51.366;12.348;2023-05-13T04:46:56;11.40;99.90
18191;DHT22;47004;51.366;12.348;2023-05-13T04:48:58;11.40;99.90
18191;DHT22;47004;51.366;12.348;2023-05-13T04:51:00;11.40;99.90
18191;DHT22;47004;51.366;12.348;2023-05-13T04:53:02;11.40;99.90
18191;DHT22;47004;51.366;12.348;2023-05-13T04:55:06;11.40;99.90
18191;DHT22;47004;51.366;12.348;2023-05-13T04:57:08;11.40;99.90
18191;DHT22;47004;51.366;12.348;2023-05-13T04:59:10;11.40;99.90
18191;DHT22;47004;51.366;12.348;2023-05-13T05:01:12;11.50;99.90
18191;DHT22;47004;51.366;12.348;2023-05-13T05:03:14;11.50;99.90
18191;DHT22;47004;51.366;12.348;2023-05-13T05:05:16;11.50;99.90
18191;DHT22;47004;51.366;12.348;2023-05-13T05:07:18;11.60;99.90
18191;DHT22;47004;51.366;12.348;2023-05-13T05:09:20;11.60;99.90
18191;DHT22;47004;51.366;12.348;2023-05-13T05:11:23;11.60;99.90
18191;DHT22;47004;51.366;12.348;2023-05-13T05:13:25;11.60;99.90
18191;DHT22;47004;51.366;12.348;2023-05-13T05:15:27;11.60;99.90
18191;DHT22;47004;51.366;12.348;2023-05-13T05:17:29;11.60;99.90
18191;DHT22;47004;51.366;12.348;2023-05-13T05:19:32;11.60;99.90
18191;DHT22;47004;51.366;12.348;2023-05-13T05:21:34;11.60;99.90
18191;DHT22;47004;51.366;12.348;2023-05-13T05:23:36;11.60;99.90
18191;DHT22;47004;51.366;12.348;2023-05-13T05:25:38;11.60;99.90
18191;DHT22;47004;51.366;12.348;2023-05-13T05:27:41;11.60;99.90
18191;DHT22;47004;51.366;12.348;2023-05-13T05:29:43;11.70;99.90
18191;DHT22;47004;51.366;12.348;2023-05-13T05:31:45;11.60;99.90
18191;DHT22;47004;51.366;12.348;2023-05-13T05:33:47;11.60;99.90
18191;DHT22;47004;51.366;12.348;2023-05-13T05:35:49;11.60;99.90
18191;DHT22;47004;51.366;12.348;2023-05-13T05:37:51;11.70;99.90
18191;DHT22;47004;51.366;12.348;2023-05-13T05:39:53;11.70;99.90
18191;DHT22;47004;51.366;12.348;2023-05-13T05:41:55;11.70;99.90
18191;DHT22;47004;51.366;12.348;2023-05-13T05:43:58;11.70;99.90
18191;DHT22;47004;51.366;12.348;2023-05-13T05:46:01;11.70;99.90
18191;DHT22;47004;51.366;12.348;2023-05-13T05:48:05;11.80;99.90
18191;DHT22;47004;51.366;12.348;2023-05-13T05:50:07;11.80;99.90
18191;DHT22;47004;51.366;12.348;2023-05-13T05:52:09;11.80;99.90
18191;DHT22;47004;51.366;12.348;2023-05-13T05:54:12;11.80;99.90
18191;DHT22;47004;51.366;12.348;2023-05-13T05:56:14;11.90;99.90
18191;DHT22;47004;51.366;12.348;2023-05-13T05:58:16;11.80;99.90
18191;DHT22;47004;51.366;12.348;2023-05-13T06:00:20;11.90;99.90
18191;DHT22;47004;51.366;12.348;2023-05-13T06:02:22;11.90;99.90
18191;DHT22;47004;51.366;12.348;2023-05-13T06:04:24;11.90;99.90
18191;DHT22;47004;51.366;12.348;2023-05-13T06:06:26;12.00;99.90
18191;DHT22;47004;51.366;12.348;2023-05-13T06:08:28;12.00;99.90
18191;DHT22;47004;51.366;12.348;2023-05-13T06:10:30;12.00;99.90
18191;DHT22;47004;51.366;12.348;2023-05-13T06:12:32;12.10;99.90
18191;DHT22;47004;51.366;12.348;2023-05-13T06:14:34;12.10;99.90
18191;DHT22;47004;51.366;12.348;2023-05-13T06:16:38;12.10;99.90
18191;DHT22;47004;51.366;12.348;2023-05-13T06:18:40;12.20;99.90
18191;DHT22;47004;51.366;12.348;2023-05-13T06:20:42;12.20;99.90
18191;DHT22;47004;51.366;12.348;2023-05-13T06:22:44;12.20;99.90
18191;DHT22;47004;51.366;12.348;2023-05-13T06:24:47;12.30;99.90
18191;DHT22;47004;51.366;12.348;2023-05-13T06:26:50;12.30;99.90
18191;DHT22;47004;51.366;12.348;2023-05-13T06:28:52;12.30;99.90
18191;DHT22;47004;51.366;12.348;2023-05-13T06:30:54;12.40;99.90
18191;DHT22;47004;51.366;12.348;2023-05-13T06:32:57;12.40;99.90
18191;DHT22;47004;51.366;12.348;2023-05-13T06:34:59;12.40;99.90
18191;DHT22;47004;51.366;12.348;2023-05-13T06:37:01;12.40;99.90
18191;DHT22;47004;51.366;12.348;2023-05-13T06:39:03;12.40;99.90
18191;DHT22;47004;51.366;12.348;2023-05-13T06:41:05;12.50;99.90
18191;DHT22;47004;51.366;12.348;2023-05-13T06:43:07;12.50;99.90
18191;DHT22;47004;51.366;12.348;2023-05-13T06:45:10;12.50;99.90
18191;DHT22;47004;51.366;12.348;2023-05-13T06:47:12;12.60;99.90
18191;DHT22;47004;51.366;12.348;2023-05-13T06:49:17;12.60;99.90
18191;DHT22;47004;51.366;12.348;2023-05-13T06:51:19;12.60;99.90
18191;DHT22;47004;51.366;12.348;2023-05-13T06:53:21;12.70;99.90
18191;DHT22;47004;51.366;12.348;2023-05-13T06:55:24;12.70;99.90
18191;DHT22;47004;51.366;12.348;2023-05-13T06:57:26;12.80;99.90
18191;DHT22;47004;51.366;12.348;2023-05-13T06:59:28;12.80;99.90
18191;DHT22;47004;51.366;12.348;2023-05-13T07:01:30;12.80;99.90
18191;DHT22;47004;51.366;12.348;2023-05-13T07:03:32;12.90;99.90
18191;DHT22;47004;51.366;12.348;2023-05-13T07:05:36;12.90;99.90
18191;DHT22;47004;51.366;12.348;2023-05-13T07:07:38;13.00;99.90
18191;DHT22;47004;51.366;12.348;2023-05-13T07:09:40;13.00;99.90
18191;DHT22;47004;51.366;12.348;2023-05-13T07:11:42;13.00;99.90
18191;DHT22;47004;51.366;12.348;2023-05-13T07:13:44;13.00;99.90
18191;DHT22;47004;51.366;12.348;2023-05-13T07:15:46;13.10;99.90
18191;DHT22;47004;51.366;12.348;2023-05-13T07:17:48;13.20;99.90
18191;DHT22;47004;51.366;12.348;2023-05-13T07:19:53;13.20;99.90
18191;DHT22;47004;51.366;12.348;2023-05-13T07:21:56;13.30;99.90
18191;DHT22;47004;51.366;12.348;2023-05-13T07:23:58;13.30;99.90
18191;DHT22;47004;51.366;12.348;2023-05-13T07:26:02;13.40;99.90
18191;DHT22;47004;51.366;12.348;2023-05-13T07:28:05;13.40;99.90
18191;DHT22;47004;51.366;12.348;2023-05-13T07:30:08;13.50;99.90
18191;DHT22;47004;51.366;12.348;2023-05-13T07:32:10;13.50;99.90
18191;DHT22;47004;51.366;12.348;2023-05-13T07:34:12;13.60;99.90
18191;DHT22;47004;51.366;12.348;2023-05-13T07:36:14;13.70;99.90
18191;DHT22;47004;51.366;12.348;2023-05-13T07:38:17;13.80;99.90
18191;DHT22;47004;51.366;12.348;2023-05-13T07:40:19;13.90;99.90
18191;DHT22;47004;51.366;12.348;2023-05-13T07:42:21;13.90;99.90
18191;DHT22;47004;51.366;12.348;2023-05-13T07:44:23;13.90;99.90
18191;DHT22;47004;51.366;12.348;2023-05-13T07:46:26;14.00;99.90
18191;DHT22;47004;51.366;12.348;2023-05-13T07:48:28;14.00;99.90
18191;DHT22;47004;51.366;12.348;2023-05-13T07:50:31;14.10;99.90
18191;DHT22;47004;51.366;12.348;2023-05-13T07:52:35;14.20;99.90
18191;DHT22;47004;51.366;12.348;2023-05-13T07:54:39;14.20;99.90
18191;DHT22;47004;51.366;12.348;2023-05-13T07:56:41;14.40;99.90
18191;DHT22;47004;51.366;12.348;2023-05-13T07:58:46;14.40;99.90
18191;DHT22;47004;51.366;12.348;2023-05-13T08:00:49;14.50;99.90
18191;DHT22;47004;51.366;12.348;2023-05-13T08:02:51;14.50;99.90
18191;DHT22;47004;51.366;12.348;2023-05-13T08:04:53;14.60;99.90
18191;DHT22;47004;51.366;12.348;2023-05-13T08:06:56;14.70;99.90
18191;DHT22;47004;51.366;12.348;2023-05-13T08:08:58;14.70;99.90
18191;DHT22;47004;51.366;12.348;2023-05-13T08:11:02;14.80;99.90
18191;DHT22;47004;51.366;12.348;2023-05-13T08:13:04;14.90;99.90
18191;DHT22;47004;51.366;12.348;2023-05-13T08:15:07;14.90;99.90
18191;DHT22;47004;51.366;12.348;2023-05-13T08:17:09;15.00;99.90
18191;DHT22;47004;51.366;12.348;2023-05-13T08:19:12;15.00;99.90
18191;DHT22;47004;51.366;12.348;2023-05-13T08:21:14;15.00;99.90
18191;DHT22;47004;51.366;12.348;2023-05-13T08:23:16;15.10;99.90
18191;DHT22;47004;51.366;12.348;2023-05-13T08:25:19;15.20;99.90
18191;DHT22;47004;51.366;12.348;2023-05-13T08:27:22;15.20;99.90
18191;DHT22;47004;51.366;12.348;2023-05-13T08:29:25;15.20;99.90
18191;DHT22;47004;51.366;12.348;2023-05-13T08:31:26;15.30;99.90
18191;DHT22;47004;51.366;12.348;2023-05-13T08:33:29;15.40;99.90
18191;DHT22;47004;51.366;12.348;2023-05-13T08:35:31;15.40;99.90
18191;DHT22;47004;51.366;12.348;2023-05-13T08:37:33;15.50;99.90
18191;DHT22;47004;51.366;12.348;2023-05-13T08:39:35;15.50;99.90
18191;DHT22;47004;51.366;12.348;2023-05-13T08:41:37;15.60;99.90
18191;DHT22;47004;51.366;12.348;2023-05-13T08:43:41;15.70;99.90
18191;DHT22;47004;51.366;12.348;2023-05-13T08:45:46;15.70;99.90
18191;DHT22;47004;51.366;12.348;2023-05-13T08:47:50;15.80;99.90
18191;DHT22;47004;51.366;12.348;2023-05-13T08:49:53;15.90;99.90
18191;DHT22;47004;51.366;12.348;2023-05-13T08:51:56;15.90;99.90
18191;DHT22;47004;51.366;12.348;2023-05-13T08:53:58;16.00;99.90
18191;DHT22;47004;51.366;12.348;2023-05-13T08:56:02;16.10;99.90
18191;DHT22;47004;51.366;12.348;2023-05-13T08:58:06;16.10;99.90
18191;DHT22;47004;51.366;12.348;2023-05-13T09:00:10;16.20;99.90
18191;DHT22;47004;51.366;12.348;2023-05-13T09:02:14;16.30;99.90
18191;DHT22;47004;51.366;12.348;2023-05-13T09:04:19;16.30;99.90
18191;DHT22;47004;51.366;12.348;2023-05-13T09:06:21;16.40;99.90
18191;DHT22;47004;51.366;12.348;2023-05-13T09:08:23;16.50;99.90
18191;DHT22;47004;51.366;12.348;2023-05-13T09:10:25;16.60;99.90
18191;DHT22;47004;51.366;12.348;2023-05-13T09:12:47;16.60;99.90
18191;DHT22;47004;51.366;12.348;2023-05-13T09:14:49;16.80;99.90
18191;DHT22;47004;51.366;12.348;2023-05-13T09:16:55;16.90;99.90
18191;DHT22;47004;51.366;12.348;2023-05-13T09:18:58;16.90;99.90
18191;DHT22;47004;51.366;12.348;2023-05-13T09:21:21;17.00;99.90
18191;DHT22;47004;51.366;12.348;2023-05-13T09:23:23;17.10;99.90
18191;DHT22;47004;51.366;12.348;2023-05-13T09:25:26;17.20;99.90
18191;DHT22;47004;51.366;12.348;2023-05-13T09:27:36;17.30;99.90
18191;DHT22;47004;51.366;12.348;2023-05-13T09:29:38;17.50;99.90
18191;DHT22;47004;51.366;12.348;2023-05-13T09:31:40;17.60;99.90
18191;DHT22;47004;51.366;12.348;2023-05-13T09:33:51;17.60;99.90
18191;DHT22;47004;51.366;12.348;2023-05-13T09:35:53;17.70;99.90
18191;DHT22;47004;51.366;12.348;2023-05-13T09:37:55;17.80;99.90
18191;DHT22;47004;51.366;12.348;2023-05-13T09:39:57;17.90;99.90
18191;DHT22;47004;51.366;12.348;2023-05-13T09:42:01;18.00;99.90
18191;DHT22;47004;51.366;12.348;2023-05-13T09:44:03;18.00;99.90
18191;DHT22;47004;51.366;12.348;2023-05-13T09:46:08;18.10;99.90
18191;DHT22;47004;51.366;12.348;2023-05-13T09:48:10;18.20;99.90
18191;DHT22;47004;51.366;12.348;2023-05-13T09:50:13;18.30;99.90
18191;DHT22;47004;51.366;12.348;2023-05-13T09:52:16;18.40;99.90
18191;DHT22;47004;51.366;12.348;2023-05-13T09:54:18;18.60;99.90
18191;DHT22;47004;51.366;12.348;2023-05-13T09:56:21;18.70;99.90
18191;DHT22;47004;51.366;12.348;2023-05-13T09:58:25;18.80;99.90
18191;DHT22;47004;51.366;12.348;2023-05-13T10:00:29;18.90;99.90
18191;DHT22;47004;51.366;12.348;2023-05-13T10:02:31;19.10;99.90
18191;DHT22;47004;51.366;12.348;2023-05-13T10:04:33;19.20;99.90
18191;DHT22;47004;51.366;12.348;2023-05-13T10:06:37;19.30;99.90
18191;DHT22;47004;51.366;12.348;2023-05-13T10:08:40;19.40;99.90
18191;DHT22;47004;51.366;12.348;2023-05-13T10:10:44;19.50;99.90
18191;DHT22;47004;51.366;12.348;2023-05-13T10:12:46;19.60;99.90
18191;DHT22;47004;51.366;12.348;2023-05-13T10:14:50;19.70;99.90
18191;DHT22;47004;51.366;12.348;2023-05-13T10:16:53;19.70;99.90
18191;DHT22;47004;51.366;12.348;2023-05-13T10:18:57;19.80;99.90
18191;DHT22;47004;51.366;12.348;2023-05-13T10:20:59;19.80;99.90
18191;DHT22;47004;51.366;12.348;2023-05-13T10:23:03;19.90;99.90
18191;DHT22;47004;51.366;12.348;2023-05-13T10:25:06;19.90;99.90
18191;DHT22;47004;51.366;12.348;2023-05-13T10:27:10;20.00;99.90
18191;DHT22;47004;51.366;12.348;2023-05-13T10:29:12;20.10;99.90
18191;DHT22;47004;51.366;12.348;2023-05-13T10:31:14;20.20;99.90
18191;DHT22;47004;51.366;12.348;2023-05-13T10:33:17;20.30;99.90
18191;DHT22;47004;51.366;12.348;2023-05-13T10:35:20;20.40;99.90
18191;DHT22;47004;51.366;12.348;2023-05-13T10:37:37;20.50;99.90
18191;DHT22;47004;51.366;12.348;2023-05-13T10:40:12;20.60;99.90
18191;DHT22;47004;51.366;12.348;2023-05-13T10:42:39;20.70;99.90
18191;DHT22;47004;51.366;12.348;2023-05-13T10:44:42;20.90;99.90
18191;DHT22;47004;51.366;12.348;2023-05-13T10:46:46;21.00;99.90
18191;DHT22;47004;51.366;12.348;2023-05-13T10:48:55;21.10;99.90
18191;DHT22;47004;51.366;12.348;2023-05-13T10:51:02;21.20;99.90
18191;DHT22;47004;51.366;12.348;2023-05-13T10:53:09;21.30;99.90
18191;DHT22;47004;51.366;12.348;2023-05-13T10:55:20;21.50;99.90
18191;DHT22;47004;51.366;12.348;2023-05-13T10:57:26;21.60;99.90
18191;DHT22;47004;51.366;12.348;2023-05-13T10:59:29;21.70;99.90
18191;DHT22;47004;51.366;12.348;2023-05-13T11:01:33;21.90;99.90
18191;DHT22;47004;51.366;12.348;2023-05-13T11:03:39;22.00;95.20
18191;DHT22;47004;51.366;12.348;2023-05-13T11:05:43;22.30;79.10
18191;DHT22;47004;51.366;12.348;2023-05-13T11:07:54;22.40;87.10
18191;DHT22;47004;51.366;12.348;2023-05-13T11:09:58;22.60;94.00
18191;DHT22;47004;51.366;12.348;2023-05-13T11:12:02;22.70;87.40
18191;DHT22;47004;51.366;12.348;2023-05-13T11:14:07;22.80;91.50
18191;DHT22;47004;51.366;12.348;2023-05-13T11:16:11;22.90;78.80
18191;DHT22;47004;51.366;12.348;2023-05-13T11:18:14;22.90;68.90
18191;DHT22;47004;51.366;12.348;2023-05-13T11:20:17;23.10;69.60
18191;DHT22;47004;51.366;12.348;2023-05-13T11:22:21;23.20;68.10
18191;DHT22;47004;51.366;12.348;2023-05-13T11:24:24;23.20;57.60
18191;DHT22;47004;51.366;12.348;2023-05-13T11:26:42;23.40;70.60
18191;DHT22;47004;51.366;12.348;2023-05-13T11:28:57;23.50;61.30
18191;DHT22;47004;51.366;12.348;2023-05-13T11:31:14;23.70;56.00
18191;DHT22;47004;51.366;12.348;2023-05-13T11:33:16;23.80;57.40
18191;DHT22;47004;51.366;12.348;2023-05-13T11:35:19;23.80;53.80
18191;DHT22;47004;51.366;12.348;2023-05-13T11:37:21;23.90;67.10
18191;DHT22;47004;51.366;12.348;2023-05-13T11:39:24;23.90;54.90
18191;DHT22;47004;51.366;12.348;2023-05-13T11:41:29;23.80;64.40
18191;DHT22;47004;51.366;12.348;2023-05-13T11:43:32;23.90;64.10
18191;DHT22;47004;51.366;12.348;2023-05-13T11:45:38;24.10;54.30
18191;DHT22;47004;51.366;12.348;2023-05-13T11:47:40;24.30;51.00
18191;DHT22;47004;51.366;12.348;2023-05-13T11:49:44;24.40;50.10
18191;DHT22;47004;51.366;12.348;2023-05-13T11:51:46;24.60;49.50
18191;DHT22;47004;51.366;12.348;2023-05-13T11:53:48;24.80;47.50
18191;DHT22;47004;51.366;12.348;2023-05-13T11:55:51;25.10;48.90
18191;DHT22;47004;51.366;12.348;2023-05-13T11:57:55;25.50;50.10
18191;DHT22;47004;51.366;12.348;2023-05-13T11:59:58;26.00;50.60
18191;DHT22;47004;51.366;12.348;2023-05-13T12:02:02;26.40;44.60
18191;DHT22;47004;51.366;12.348;2023-05-13T12:04:04;26.50;42.50
18191;DHT22;47004;51.366;12.348;2023-05-13T12:06:06;26.60;41.30
18191;DHT22;47004;51.366;12.348;2023-05-13T12:08:08;26.60;40.20
18191;DHT22;47004;51.366;12.348;2023-05-13T12:10:10;27.00;40.70
18191;DHT22;47004;51.366;12.348;2023-05-13T12:12:12;27.20;38.60
18191;DHT22;47004;51.366;12.348;2023-05-13T12:14:16;27.30;38.20
18191;DHT22;47004;51.366;12.348;2023-05-13T12:16:18;27.20;36.40
18191;DHT22;47004;51.366;12.348;2023-05-13T12:18:21;27.00;38.70
18191;DHT22;47004;51.366;12.348;2023-05-13T12:20:24;27.40;38.60
18191;DHT22;47004;51.366;12.348;2023-05-13T12:22:26;28.20;36.50
18191;DHT22;47004;51.366;12.348;2023-05-13T12:24:32;29.10;34.70
18191;DHT22;47004;51.366;12.348;2023-05-13T12:26:34;29.80;33.50
18191;DHT22;47004;51.366;12.348;2023-05-13T12:28:36;30.00;31.70
18191;DHT22;47004;51.366;12.348;2023-05-13T12:30:40;29.80;31.30
18191;DHT22;47004;51.366;12.348;2023-05-13T12:32:43;29.50;32.60
18191;DHT22;47004;51.366;12.348;2023-05-13T12:34:49;29.10;31.80
18191;DHT22;47004;51.366;12.348;2023-05-13T12:36:51;28.70;32.00
18191;DHT22;47004;51.366;12.348;2023-05-13T12:38:55;28.40;31.80
18191;DHT22;47004;51.366;12.348;2023-05-13T12:41:10;28.10;33.30
18191;DHT22;47004;51.366;12.348;2023-05-13T12:43:12;28.60;32.40
18191;DHT22;47004;51.366;12.348;2023-05-13T12:45:15;29.30;31.50